Time;durP1;ratioP1;P1;durP2;ratioP2;P2;SDS_P1;SDS_P2;PMS_P1;PMS_P2;Temp;Humidity;BMP_temperature;BMP_pressure;BME280_temperature;BME280_humidity;BME280_pressure;Samples;Min_cycle;Max_cycle;Signal;HPM_P1;HPM_P2
2022/07/05 00:01:05;;;;;;;0.08;0.08;;;15.70;99.90;;;;;;5070517;28;20036;-70
2022/07/05 00:03:31;;;;;;;0.10;0.10;;;15.70;99.90;;;;;;5071984;28;20036;-70
2022/07/05 00:05:57;;;;;;;0.10;0.10;;;15.60;99.90;;;;;;5086043;28;20048;-70
2022/07/05 00:08:23;;;;;;;0.20;0.20;;;15.60;99.90;;;;;;5060314;28;20029;-70
2022/07/05 00:10:48;;;;;;;0.20;0.20;;;15.60;99.90;;;;;;5070880;28;20044;-70
2022/07/05 00:13:15;;;;;;;0.10;0.10;;;15.60;99.90;;;;;;5053745;28;20053;-70
2022/07/05 00:15:41;;;;;;;0.25;0.25;;;15.60;99.90;;;;;;5056694;28;20049;-70
2022/07/05 00:18:07;;;;;;;0.20;0.20;;;15.60;99.90;;;;;;5072718;28;20036;-70
2022/07/05 00:20:32;;;;;;;0.00;0.00;;;15.60;99.90;;;;;;5079577;28;20496;-70
2022/07/05 00:22:58;;;;;;;0.00;0.00;;;15.60;99.90;;;;;;5070412;28;20076;-70
2022/07/05 00:25:24;;;;;;;0.10;0.10;;;15.60;99.90;;;;;;5070344;28;20044;-70
2022/07/05 00:27:49;;;;;;;0.10;0.10;;;15.50;99.90;;;;;;5091231;28;20128;-70
2022/07/05 00:30:15;;;;;;;0.10;0.10;;;15.50;99.90;;;;;;5075973;28;20058;-70
2022/07/05 00:32:41;;;;;;;2.00;0.47;;;15.50;99.90;;;;;;5070915;28;20064;-70
2022/07/05 00:35:07;;;;;;;0.55;0.38;;;15.40;99.90;;;;;;5074944;28;20131;-70
2022/07/05 00:37:33;;;;;;;0.10;0.10;;;15.30;99.90;;;;;;5090606;28;20044;-70
2022/07/05 00:39:59;;;;;;;0.00;0.00;;;15.30;99.90;;;;;;5091285;28;20080;-70
2022/07/05 00:42:24;;;;;;;0.08;0.08;;;15.30;99.90;;;;;;5082269;28;20115;-70
2022/07/05 00:44:50;;;;;;;0.10;0.10;;;15.20;99.90;;;;;;5070275;28;20127;-70
2022/07/05 00:47:16;;;;;;;0.10;0.10;;;15.10;99.90;;;;;;5070959;28;20117;-70
2022/07/05 00:49:42;;;;;;;0.28;0.28;;;15.10;99.90;;;;;;5039669;28;20068;-70
2022/07/05 00:52:09;;;;;;;0.20;0.20;;;15.10;99.90;;;;;;5044630;28;20478;-70
2022/07/05 00:54:36;;;;;;;0.10;0.10;;;15.10;99.90;;;;;;5050905;28;20041;-70
2022/07/05 00:57:03;;;;;;;0.08;0.08;;;15.10;99.90;;;;;;5030174;28;20064;-70
2022/07/05 00:59:30;;;;;;;0.30;0.30;;;15.10;99.90;;;;;;5087573;28;20040;-70
2022/07/05 01:01:56;;;;;;;0.30;0.30;;;15.00;99.90;;;;;;5052210;28;20045;-70
2022/07/05 01:04:22;;;;;;;0.10;0.10;;;15.00;99.90;;;;;;5066402;28;20047;-70
2022/07/05 01:06:49;;;;;;;0.20;0.20;;;14.80;99.90;;;;;;5068869;28;20048;-70
2022/07/05 01:09:17;;;;;;;0.00;0.00;;;14.80;99.90;;;;;;5072509;28;20044;-70
2022/07/05 01:11:44;;;;;;;0.15;0.15;;;15.00;99.90;;;;;;5059073;28;20431;-70
2022/07/05 01:14:13;;;;;;;0.10;0.10;;;14.90;99.90;;;;;;5051582;28;20059;-70
2022/07/05 01:16:38;;;;;;;0.30;0.30;;;14.90;99.90;;;;;;5089152;28;20808;-70
2022/07/05 01:19:09;;;;;;;0.75;0.75;;;14.90;99.90;;;;;;5090009;28;20048;-70
2022/07/05 01:21:40;;;;;;;0.00;0.00;;;14.80;99.90;;;;;;5069020;28;20458;-70
2022/07/05 01:24:08;;;;;;;0.00;0.00;;;14.70;99.90;;;;;;5090687;28;20079;-70
2022/07/05 01:26:33;;;;;;;0.10;0.10;;;14.70;99.90;;;;;;5071429;28;20078;-70
2022/07/05 01:28:59;;;;;;;3.03;0.32;;;14.70;99.90;;;;;;5054738;28;20084;-70
2022/07/05 01:31:25;;;;;;;0.43;0.40;;;14.70;99.90;;;;;;5063362;28;20412;-70
2022/07/05 01:33:50;;;;;;;0.10;0.10;;;14.70;99.90;;;;;;5050796;28;20059;-70
2022/07/05 01:36:17;;;;;;;0.10;0.10;;;14.50;99.90;;;;;;5070319;28;20488;-70
2022/07/05 01:38:43;;;;;;;0.03;0.03;;;14.70;99.90;;;;;;5052463;28;20071;-70
2022/07/05 01:41:09;;;;;;;0.10;0.10;;;14.70;99.90;;;;;;5048945;28;20044;-70
2022/07/05 01:43:35;;;;;;;1.17;0.95;;;14.60;99.90;;;;;;5069965;28;20411;-70
2022/07/05 01:46:04;;;;;;;0.10;0.10;;;14.70;99.90;;;;;;5052036;28;20056;-70
2022/07/05 01:48:32;;;;;;;0.00;0.00;;;14.70;99.90;;;;;;5069588;28;20044;-70
2022/07/05 01:51:04;;;;;;;1.13;0.25;;;14.70;99.90;;;;;;5083268;28;20040;-70
2022/07/05 01:53:31;;;;;;;0.10;0.10;;;14.70;99.90;;;;;;5077263;28;20049;-70
2022/07/05 01:56:01;;;;;;;0.30;0.30;;;14.60;99.90;;;;;;5069183;28;20063;-70
2022/07/05 01:58:27;;;;;;;0.20;0.20;;;14.60;99.90;;;;;;5052028;28;20546;-70
2022/07/05 02:00:54;;;;;;;0.10;0.10;;;14.60;99.90;;;;;;5067930;28;20052;-70
2022/07/05 02:03:21;;;;;;;0.80;0.80;;;14.50;99.90;;;;;;5069677;28;20047;-70
2022/07/05 02:05:47;;;;;;;0.10;0.10;;;14.40;99.90;;;;;;5065199;28;20055;-70
2022/07/05 02:08:14;;;;;;;0.35;0.30;;;14.30;99.90;;;;;;5071209;28;20052;-70
2022/07/05 02:10:40;;;;;;;0.10;0.10;;;14.40;99.90;;;;;;5086958;28;20052;-70
2022/07/05 02:13:07;;;;;;;0.10;0.10;;;14.50;99.90;;;;;;5069639;28;20033;-70
2022/07/05 02:15:34;;;;;;;0.00;0.00;;;14.40;99.90;;;;;;5068948;28;20056;-70
2022/07/05 02:18:01;;;;;;;0.10;0.10;;;14.50;99.90;;;;;;5046281;28;20071;-70
2022/07/05 02:20:29;;;;;;;0.10;0.10;;;14.60;99.90;;;;;;5071533;28;20048;-70
2022/07/05 02:22:54;;;;;;;0.10;0.10;;;14.60;99.90;;;;;;5093048;28;20043;-70
2022/07/05 02:25:20;;;;;;;0.03;0.03;;;14.70;99.90;;;;;;5075570;28;20457;-70
2022/07/05 02:27:46;;;;;;;4.28;1.20;;;14.80;99.90;;;;;;5084190;28;20075;-70
2022/07/05 02:30:12;;;;;;;0.00;0.00;;;14.70;99.90;;;;;;5072834;28;20044;-70
2022/07/05 02:32:38;;;;;;;6.55;1.98;;;14.70;99.90;;;;;;5089348;28;20048;-70
2022/07/05 02:35:05;;;;;;;0.10;0.10;;;14.70;99.90;;;;;;5075680;28;20043;-70
2022/07/05 02:37:31;;;;;;;0.10;0.10;;;14.70;99.90;;;;;;5092948;28;20380;-70
2022/07/05 02:39:56;;;;;;;0.28;0.28;;;14.70;99.90;;;;;;5073843;28;20040;-70
2022/07/05 02:42:22;;;;;;;0.20;0.20;;;14.60;99.90;;;;;;5072396;28;20048;-70
2022/07/05 02:44:48;;;;;;;0.10;0.10;;;14.80;99.90;;;;;;5074345;28;20080;-71
2022/07/05 02:47:13;;;;;;;0.10;0.10;;;14.80;99.90;;;;;;5093382;28;20047;-70
2022/07/05 02:49:39;;;;;;;0.20;0.20;;;14.90;99.90;;;;;;5075266;28;20043;-70
2022/07/05 02:52:04;;;;;;;0.10;0.10;;;14.90;99.90;;;;;;5078164;28;20400;-70
2022/07/05 02:54:30;;;;;;;0.00;0.00;;;15.00;99.90;;;;;;5072524;28;20052;-70
2022/07/05 02:56:55;;;;;;;0.10;0.10;;;15.00;99.90;;;;;;5088341;28;20056;-70
2022/07/05 02:59:21;;;;;;;0.10;0.10;;;15.10;99.90;;;;;;5072491;28;20110;-71
2022/07/05 03:01:47;;;;;;;0.38;0.30;;;15.10;99.90;;;;;;5071467;28;20044;-70
2022/07/05 03:04:12;;;;;;;0.10;0.10;;;14.90;99.90;;;;;;5072368;28;20415;-70
2022/07/05 03:06:38;;;;;;;0.10;0.10;;;15.10;99.90;;;;;;5072959;28;20444;-70
2022/07/05 03:09:04;;;;;;;0.00;0.00;;;15.20;99.90;;;;;;5078441;28;20502;-70
2022/07/05 03:11:29;;;;;;;0.10;0.10;;;15.20;99.90;;;;;;5084758;28;20052;-70
2022/07/05 03:13:55;;;;;;;0.20;0.20;;;15.30;99.90;;;;;;5072822;28;20530;-70
2022/07/05 03:16:23;;;;;;;0.40;0.40;;;15.30;99.90;;;;;;5072631;28;20040;-70
2022/07/05 03:18:49;;;;;;;0.20;0.20;;;15.30;99.90;;;;;;5070707;28;20083;-70
2022/07/05 03:21:15;;;;;;;0.00;0.00;;;15.30;99.90;;;;;;5072224;28;20520;-70
2022/07/05 03:23:40;;;;;;;0.10;0.10;;;15.30;99.90;;;;;;5072541;28;20076;-70
2022/07/05 03:26:06;;;;;;;0.10;0.10;;;15.30;99.90;;;;;;5071803;28;20476;-70
2022/07/05 03:28:32;;;;;;;0.00;0.00;;;15.30;99.90;;;;;;5060405;28;20052;-70
2022/07/05 03:30:58;;;;;;;0.00;0.00;;;15.20;99.90;;;;;;5091717;28;20050;-70
2022/07/05 03:33:23;;;;;;;0.05;0.05;;;15.20;99.90;;;;;;5092035;28;20044;-70
2022/07/05 03:35:49;;;;;;;0.70;0.70;;;15.10;99.90;;;;;;5053291;28;20693;-70
2022/07/05 03:38:14;;;;;;;0.73;0.73;;;15.00;99.90;;;;;;5070440;28;20049;-70
2022/07/05 03:40:40;;;;;;;0.38;0.38;;;15.00;99.90;;;;;;5071904;28;20140;-70
2022/07/05 03:43:06;;;;;;;0.10;0.10;;;14.90;99.90;;;;;;5084471;28;20040;-71
2022/07/05 03:45:31;;;;;;;0.00;0.00;;;14.90;99.90;;;;;;5092314;28;20044;-70
2022/07/05 03:47:58;;;;;;;0.00;0.00;;;14.90;99.90;;;;;;5091993;28;20526;-70
2022/07/05 03:50:24;;;;;;;0.20;0.20;;;14.90;99.90;;;;;;5092496;28;20134;-70
2022/07/05 03:52:49;;;;;;;0.10;0.10;;;14.90;99.90;;;;;;5077355;28;20451;-70
2022/07/05 03:55:15;;;;;;;0.00;0.00;;;14.90;99.90;;;;;;5070862;28;20051;-70
2022/07/05 03:57:40;;;;;;;0.10;0.10;;;14.90;99.90;;;;;;5072231;28;20049;-70
2022/07/05 04:00:07;;;;;;;0.10;0.10;;;14.90;99.90;;;;;;5070700;28;20074;-70
2022/07/05 04:02:32;;;;;;;0.00;0.00;;;14.90;99.90;;;;;;5088807;28;20085;-70
2022/07/05 04:04:58;;;;;;;0.55;0.30;;;14.90;99.90;;;;;;5073894;28;20048;-70
2022/07/05 04:07:23;;;;;;;0.10;0.10;;;15.00;99.90;;;;;;5091423;28;20036;-70
2022/07/05 04:09:49;;;;;;;0.22;0.22;;;15.00;99.90;;;;;;5083937;28;20450;-70
2022/07/05 04:12:14;;;;;;;2.45;0.63;;;15.00;99.90;;;;;;5062163;28;20059;-70
2022/07/05 04:14:40;;;;;;;0.40;0.40;;;15.00;99.90;;;;;;5062629;28;20049;-70
2022/07/05 04:17:06;;;;;;;0.10;0.10;;;15.10;99.90;;;;;;5054770;28;20620;-70
2022/07/05 04:19:31;;;;;;;0.03;0.03;;;15.10;99.90;;;;;;5091001;28;20125;-70
2022/07/05 04:21:57;;;;;;;0.00;0.00;;;15.10;99.90;;;;;;5083503;28;20040;-70
2022/07/05 04:24:22;;;;;;;0.10;0.10;;;15.10;99.90;;;;;;5071288;28;20062;-70
2022/07/05 04:26:48;;;;;;;0.20;0.20;;;15.10;99.90;;;;;;5053969;28;20060;-70
2022/07/05 04:29:14;;;;;;;0.10;0.10;;;15.10;99.90;;;;;;5070515;28;20051;-70
2022/07/05 04:31:39;;;;;;;0.10;0.10;;;15.10;99.90;;;;;;5069420;28;20067;-70
2022/07/05 04:34:05;;;;;;;0.00;0.00;;;15.10;99.90;;;;;;5053511;28;20071;-70
2022/07/05 04:36:31;;;;;;;5.28;0.38;;;15.20;99.90;;;;;;5069147;28;20040;-70
2022/07/05 04:38:57;;;;;;;0.10;0.10;;;15.20;99.90;;;;;;5071222;28;20044;-70
2022/07/05 04:41:23;;;;;;;0.10;0.10;;;15.20;99.90;;;;;;5063417;28;20121;-70
2022/07/05 04:43:48;;;;;;;0.00;0.00;;;15.20;99.90;;;;;;5090907;28;20032;-70
2022/07/05 04:46:14;;;;;;;0.00;0.00;;;15.30;99.90;;;;;;5072890;28;20647;-70
2022/07/05 04:48:40;;;;;;;0.00;0.00;;;15.30;99.90;;;;;;5068006;28;20579;-70
2022/07/05 04:51:05;;;;;;;0.10;0.10;;;15.30;99.90;;;;;;5069626;28;20048;-70
2022/07/05 04:53:31;;;;;;;0.10;0.10;;;15.40;99.90;;;;;;5052899;28;20068;-70
2022/07/05 04:55:56;;;;;;;0.08;0.08;;;15.40;99.90;;;;;;5052898;28;20095;-70
2022/07/05 04:58:22;;;;;;;0.10;0.10;;;15.50;99.90;;;;;;5052811;28;20045;-70
2022/07/05 05:00:47;;;;;;;0.00;0.00;;;15.60;99.90;;;;;;5049590;28;20485;-70
2022/07/05 05:03:13;;;;;;;0.00;0.00;;;15.60;99.90;;;;;;5058020;28;20119;-70
2022/07/05 05:05:38;;;;;;;0.10;0.10;;;15.70;99.90;;;;;;5070105;28;20044;-70
2022/07/05 05:08:04;;;;;;;0.10;0.10;;;15.70;99.90;;;;;;5070982;28;20098;-70
2022/07/05 05:10:30;;;;;;;0.00;0.00;;;15.80;99.90;;;;;;5087408;28;20122;-70
2022/07/05 05:12:56;;;;;;;0.00;0.00;;;15.90;99.90;;;;;;5071340;28;20032;-70
2022/07/05 05:15:21;;;;;;;0.10;0.10;;;15.90;99.90;;;;;;5068555;28;20143;-70
2022/07/05 05:17:47;;;;;;;0.00;0.00;;;16.00;99.90;;;;;;5047963;28;20029;-70
2022/07/05 05:20:15;;;;;;;0.28;0.28;;;16.00;99.90;;;;;;5051997;28;20512;-70
2022/07/05 05:22:41;;;;;;;0.08;0.08;;;16.10;99.90;;;;;;5070412;28;20381;-70
2022/07/05 05:25:08;;;;;;;0.10;0.10;;;16.10;99.90;;;;;;5067345;28;20041;-70
2022/07/05 05:27:34;;;;;;;0.00;0.00;;;16.10;99.90;;;;;;5069791;28;20050;-70
2022/07/05 05:30:00;;;;;;;0.10;0.10;;;16.10;99.90;;;;;;5070070;28;20074;-70
2022/07/05 05:32:26;;;;;;;0.00;0.00;;;16.10;99.90;;;;;;5069446;28;20547;-70
2022/07/05 05:34:51;;;;;;;0.10;0.10;;;16.10;99.90;;;;;;5068710;28;20037;-70
2022/07/05 05:37:17;;;;;;;0.03;0.03;;;16.20;99.90;;;;;;5048735;28;20701;-71
2022/07/05 05:39:42;;;;;;;0.10;0.10;;;16.20;99.90;;;;;;5062380;28;20228;-70
2022/07/05 05:42:08;;;;;;;0.05;0.05;;;16.30;99.90;;;;;;5070166;28;20473;-71
2022/07/05 05:44:34;;;;;;;0.00;0.00;;;16.30;99.90;;;;;;5044144;28;20086;-70
2022/07/05 05:46:59;;;;;;;0.10;0.10;;;16.30;99.90;;;;;;5069065;28;20181;-70
2022/07/05 05:49:25;;;;;;;0.10;0.10;;;16.40;99.90;;;;;;5069771;28;20404;-70
2022/07/05 05:51:50;;;;;;;0.10;0.10;;;16.50;99.90;;;;;;5068007;28;20083;-70
2022/07/05 05:54:16;;;;;;;0.43;0.43;;;16.50;99.90;;;;;;5068626;28;20496;-71
2022/07/05 05:56:41;;;;;;;0.00;0.00;;;16.60;99.90;;;;;;5050147;28;20060;-71
2022/07/05 05:59:08;;;;;;;0.10;0.10;;;16.60;99.90;;;;;;5069802;28;20051;-70
2022/07/05 06:01:34;;;;;;;0.10;0.10;;;16.60;99.90;;;;;;5069114;28;20090;-70
2022/07/05 06:03:59;;;;;;;0.00;0.00;;;16.70;99.90;;;;;;5069611;28;20048;-70
2022/07/05 06:06:25;;;;;;;0.00;0.00;;;16.80;99.90;;;;;;5073769;28;20040;-71
2022/07/05 06:08:50;;;;;;;0.00;0.00;;;16.80;99.90;;;;;;5071428;28;20647;-70
2022/07/05 06:11:16;;;;;;;0.35;0.35;;;16.90;99.90;;;;;;5084126;28;20037;-71
2022/07/05 06:13:43;;;;;;;0.00;0.00;;;17.00;99.90;;;;;;5066684;28;20048;-70
2022/07/05 06:16:08;;;;;;;0.05;0.05;;;17.00;99.90;;;;;;5069647;28;20049;-70
2022/07/05 06:18:34;;;;;;;0.63;0.63;;;17.10;99.90;;;;;;5062772;28;20056;-70
2022/07/05 06:21:00;;;;;;;0.75;0.63;;;17.30;99.90;;;;;;5065568;28;20058;-70
2022/07/05 06:23:26;;;;;;;1.52;0.32;;;17.40;99.90;;;;;;5069946;28;20040;-71
2022/07/05 06:25:51;;;;;;;0.13;0.13;;;17.40;99.90;;;;;;5068357;28;20045;-70
2022/07/05 06:28:17;;;;;;;0.00;0.00;;;17.30;99.90;;;;;;5068875;28;20607;-71
2022/07/05 06:30:43;;;;;;;0.10;0.10;;;17.30;99.90;;;;;;5069423;28;20052;-70
2022/07/05 06:33:08;;;;;;;0.10;0.10;;;17.20;99.90;;;;;;5067429;28;20134;-69
2022/07/05 06:35:34;;;;;;;0.00;0.00;;;17.20;99.90;;;;;;5067448;28;20056;-70
2022/07/05 06:38:05;;;;;;;0.00;0.00;;;17.20;99.90;;;;;;5069791;28;20045;-70
2022/07/05 06:40:33;;;;;;;0.00;0.00;;;17.30;99.90;;;;;;5069506;28;20400;-70
2022/07/05 06:43:01;;;;;;;0.93;0.77;;;17.30;99.90;;;;;;5084508;28;20046;-70
2022/07/05 06:45:28;;;;;;;0.00;0.00;;;17.40;99.90;;;;;;5071433;28;20058;-70
2022/07/05 06:47:57;;;;;;;0.00;0.00;;;17.50;99.90;;;;;;5090166;28;20133;-70
2022/07/05 06:50:23;;;;;;;0.00;0.00;;;17.50;99.90;;;;;;5072747;28;20507;-70
2022/07/05 06:52:49;;;;;;;0.10;0.10;;;17.60;99.90;;;;;;5048341;28;20132;-70
2022/07/05 06:55:14;;;;;;;0.00;0.00;;;17.70;99.90;;;;;;5041526;28;20474;-70
2022/07/05 06:57:40;;;;;;;0.00;0.00;;;17.70;99.90;;;;;;5052326;28;20052;-70
2022/07/05 07:00:07;;;;;;;0.00;0.00;;;17.70;99.90;;;;;;5088780;28;20076;-70
2022/07/05 07:02:33;;;;;;;0.10;0.10;;;17.80;99.90;;;;;;5075143;28;20392;-70
2022/07/05 07:04:59;;;;;;;0.10;0.10;;;17.80;99.90;;;;;;5064515;28;20510;-70
2022/07/05 07:10:09;;;;;;;0.00;0.00;;;17.90;99.90;;;;;;5068470;28;20071;-70
2022/07/05 07:12:34;;;;;;;0.00;0.00;;;17.90;99.90;;;;;;5070848;28;20385;-69
2022/07/05 07:15:00;;;;;;;0.03;0.03;;;18.00;99.90;;;;;;5079171;28;20067;-70
2022/07/05 07:17:25;;;;;;;0.10;0.10;;;18.00;99.90;;;;;;5074169;28;20047;-69
2022/07/05 07:19:51;;;;;;;1.98;1.00;;;18.20;99.90;;;;;;5074995;28;20044;-69
2022/07/05 07:22:17;;;;;;;0.00;0.00;;;18.20;99.90;;;;;;5052913;28;20359;-69
2022/07/05 07:24:42;;;;;;;0.52;0.08;;;18.10;99.90;;;;;;5051833;28;20395;-69
2022/07/05 07:27:08;;;;;;;0.00;0.00;;;18.10;99.90;;;;;;5062221;28;20145;-69
2022/07/05 07:29:36;;;;;;;3.95;0.90;;;18.10;99.90;;;;;;5051189;28;20048;-69
2022/07/05 07:32:04;;;;;;;0.08;0.08;;;18.20;99.90;;;;;;5050924;28;20047;-69
2022/07/05 07:34:30;;;;;;;0.00;0.00;;;18.20;99.90;;;;;;5088923;28;20052;-69
2022/07/05 07:36:56;;;;;;;0.10;0.10;;;18.20;99.90;;;;;;5072763;28;20055;-69
2022/07/05 07:39:23;;;;;;;0.00;0.00;;;18.30;99.90;;;;;;5053630;28;20056;-69
2022/07/05 07:41:49;;;;;;;1.08;0.73;;;18.30;99.90;;;;;;5070469;28;20048;-69
2022/07/05 07:44:15;;;;;;;0.00;0.00;;;18.30;99.90;;;;;;5072240;28;20601;-70
2022/07/05 07:46:41;;;;;;;3.30;0.70;;;18.40;99.90;;;;;;5053270;28;20048;-70
2022/07/05 07:49:07;;;;;;;0.10;0.10;;;18.50;99.90;;;;;;5084655;28;20047;-69
2022/07/05 07:51:33;;;;;;;1.40;1.35;;;18.60;99.90;;;;;;5073785;28;20399;-69
2022/07/05 07:53:59;;;;;;;0.13;0.13;;;18.70;99.90;;;;;;5086107;28;20051;-70
2022/07/05 07:56:25;;;;;;;0.10;0.10;;;18.60;99.90;;;;;;5071096;28;20399;-70
2022/07/05 07:58:52;;;;;;;0.00;0.00;;;18.60;99.90;;;;;;5072504;28;20131;-70
2022/07/05 08:01:18;;;;;;;0.05;0.05;;;18.60;99.90;;;;;;5053066;28;20533;-69
2022/07/05 08:03:44;;;;;;;0.10;0.10;;;18.60;99.90;;;;;;5076928;28;20441;-70
2022/07/05 08:06:11;;;;;;;0.10;0.10;;;18.50;99.90;;;;;;5091575;28;20108;-70
2022/07/05 08:08:40;;;;;;;0.03;0.03;;;18.50;99.90;;;;;;5091439;28;20047;-70
2022/07/05 08:11:08;;;;;;;0.00;0.00;;;18.50;99.90;;;;;;5087712;28;20136;-69
2022/07/05 08:13:34;;;;;;;0.13;0.13;;;18.60;99.90;;;;;;5069469;28;20055;-69
2022/07/05 08:16:00;;;;;;;0.00;0.00;;;18.70;99.90;;;;;;5088806;28;20039;-70
2022/07/05 08:23:54;;;;;;;0.10;0.10;;;19.00;99.90;;;;;;5073349;28;20052;-70
2022/07/05 08:26:21;;;;;;;0.00;0.00;;;18.90;99.90;;;;;;5088400;28;20047;-69
2022/07/05 08:28:46;;;;;;;6.32;0.68;;;18.70;99.90;;;;;;5086682;28;20099;-70
2022/07/05 08:31:12;;;;;;;0.03;0.03;;;18.60;99.90;;;;;;5091369;28;20051;-70
2022/07/05 08:33:38;;;;;;;0.05;0.05;;;18.60;99.90;;;;;;5089083;28;20464;-70
2022/07/05 08:36:04;;;;;;;0.00;0.00;;;18.70;99.90;;;;;;5071901;28;20520;-69
2022/07/05 08:38:29;;;;;;;0.17;0.15;;;18.90;99.90;;;;;;5091354;28;20172;-69
2022/07/05 08:40:57;;;;;;;0.10;0.10;;;18.90;99.90;;;;;;5091465;28;20388;-69
2022/07/05 08:43:23;;;;;;;0.10;0.10;;;18.80;99.90;;;;;;5077545;28;20471;-69
2022/07/05 08:45:53;;;;;;;0.00;0.00;;;18.80;99.90;;;;;;5071149;28;20052;-69
2022/07/05 08:48:20;;;;;;;0.00;0.00;;;18.90;99.90;;;;;;5047569;28;20044;-70
2022/07/05 08:50:48;;;;;;;0.13;0.13;;;19.10;99.90;;;;;;5070161;28;20450;-69
2022/07/05 08:53:15;;;;;;;0.00;0.00;;;19.20;99.90;;;;;;5068994;28;20040;-69
2022/07/05 08:55:42;;;;;;;0.00;0.00;;;19.20;99.90;;;;;;5048529;28;20049;-69
2022/07/05 08:58:07;;;;;;;0.05;0.05;;;19.00;99.90;;;;;;5050841;28;20045;-70
2022/07/05 09:00:36;;;;;;;0.10;0.10;;;19.10;99.90;;;;;;5031972;28;20090;-69
2022/07/05 09:03:01;;;;;;;0.00;0.00;;;19.30;99.90;;;;;;5051422;28;20488;-70
2022/07/05 09:05:28;;;;;;;0.00;0.00;;;19.20;99.90;;;;;;5062262;28;20105;-69
2022/07/05 09:08:01;;;;;;;0.00;0.00;;;19.00;99.90;;;;;;5090957;28;20123;-69
2022/07/05 09:10:29;;;;;;;0.00;0.00;;;19.00;99.90;;;;;;5090446;28;20043;-69
2022/07/05 09:12:55;;;;;;;0.03;0.03;;;19.20;99.90;;;;;;5069737;28;20060;-69
2022/07/05 09:15:21;;;;;;;0.10;0.10;;;19.40;99.90;;;;;;5056106;28;20048;-70
2022/07/05 09:17:47;;;;;;;0.35;0.35;;;19.30;99.90;;;;;;5090113;28;20538;-69
2022/07/05 09:20:15;;;;;;;0.00;0.00;;;19.30;99.90;;;;;;5090384;28;20048;-69
2022/07/05 09:22:43;;;;;;;0.00;0.00;;;19.20;99.90;;;;;;5079782;28;20041;-70
2022/07/05 09:25:27;;;;;;;0.00;0.00;;;19.30;99.90;;;;;;5065265;28;20434;-70
2022/07/05 09:27:55;;;;;;;0.00;0.00;;;19.40;99.90;;;;;;5052067;28;20072;-69
2022/07/05 09:30:30;;;;;;;0.20;0.20;;;19.40;99.90;;;;;;5086963;28;20158;-69
2022/07/05 09:33:11;;;;;;;0.00;0.00;;;19.20;99.90;;;;;;5089874;28;20094;-69
2022/07/05 09:35:57;;;;;;;0.00;0.00;;;19.10;99.90;;;;;;5072277;28;20131;-70
2022/07/05 09:38:24;;;;;;;0.00;0.00;;;19.30;99.90;;;;;;5080554;28;20490;-69
2022/07/05 09:40:52;;;;;;;0.00;0.00;;;19.40;99.90;;;;;;5070673;28;20052;-69
2022/07/05 09:43:20;;;;;;;0.00;0.00;;;19.20;99.90;;;;;;5070521;28;20072;-69
2022/07/05 09:46:00;;;;;;;7.60;0.32;;;19.20;99.90;;;;;;5052126;28;20400;-69
2022/07/05 09:48:28;;;;;;;0.10;0.10;;;19.60;99.90;;;;;;5047340;28;20052;-70
2022/07/05 09:51:13;;;;;;;0.10;0.10;;;19.60;99.90;;;;;;5067207;28;20110;-69
2022/07/05 09:53:53;;;;;;;0.10;0.10;;;19.50;99.90;;;;;;5051508;28;20045;-69
2022/07/05 09:56:20;;;;;;;0.00;0.00;;;19.30;99.90;;;;;;5050616;28;20131;-70
2022/07/05 09:58:46;;;;;;;0.00;0.00;;;19.70;99.90;;;;;;5049031;28;20049;-70
2022/07/05 10:01:36;;;;;;;0.10;0.10;;;20.30;99.90;;;;;;5049413;28;20051;-69
2022/07/05 10:04:02;;;;;;;0.00;0.00;;;20.80;99.90;;;;;;5050034;28;20609;-69
2022/07/05 10:06:29;;;;;;;0.10;0.10;;;21.20;99.90;;;;;;5057420;28;20144;-69
2022/07/05 10:08:55;;;;;;;0.00;0.00;;;21.30;99.90;;;;;;5048612;28;20476;-69
2022/07/05 10:11:23;;;;;;;0.10;0.10;;;21.00;99.90;;;;;;5055903;28;20052;-69
2022/07/05 10:13:50;;;;;;;0.65;0.55;;;20.70;99.90;;;;;;5068458;28;20048;-69
2022/07/05 10:16:17;;;;;;;0.38;0.38;;;20.20;99.90;;;;;;5068565;28;20105;-69
2022/07/05 10:18:50;;;;;;;0.00;0.00;;;20.10;99.90;;;;;;5052417;28;20512;-70
2022/07/05 10:21:16;;;;;;;0.00;0.00;;;20.20;99.90;;;;;;5069463;28;20044;-69
2022/07/05 10:23:53;;;;;;;0.08;0.08;;;20.30;99.90;;;;;;5056518;28;20792;-69
2022/07/05 10:26:20;;;;;;;0.00;0.00;;;20.00;99.90;;;;;;5089249;28;20052;-69
2022/07/05 10:28:49;;;;;;;0.00;0.00;;;20.20;99.90;;;;;;5089178;28;20041;-69
2022/07/05 10:31:16;;;;;;;0.10;0.10;;;20.70;99.90;;;;;;5080156;28;20048;-70
2022/07/05 10:33:42;;;;;;;0.00;0.00;;;21.20;99.90;;;;;;5048015;28;20053;-69
2022/07/05 10:36:13;;;;;;;0.10;0.10;;;21.30;99.90;;;;;;5078064;28;20117;-70
2022/07/05 10:38:41;;;;;;;0.10;0.10;;;21.30;99.90;;;;;;5089568;28;20509;-70
2022/07/05 10:41:10;;;;;;;0.00;0.00;;;21.20;99.90;;;;;;5092338;28;20044;-69
2022/07/05 10:43:36;;;;;;;0.10;0.10;;;21.00;99.90;;;;;;5068270;28;20045;-69
2022/07/05 10:46:06;;;;;;;0.20;0.20;;;20.80;99.90;;;;;;5073214;28;20043;-69
2022/07/05 10:48:32;;;;;;;0.50;0.40;;;20.60;99.90;;;;;;5072607;28;20037;-70
2022/07/05 10:51:13;;;;;;;0.00;0.00;;;20.40;99.90;;;;;;5055221;28;20105;-70
2022/07/05 10:53:39;;;;;;;0.20;0.13;;;20.20;99.90;;;;;;5064191;28;20131;-69
2022/07/05 10:56:04;;;;;;;0.00;0.00;;;20.00;99.90;;;;;;5092389;28;20140;-69
2022/07/05 10:58:33;;;;;;;0.05;0.05;;;19.80;99.90;;;;;;5064954;28;20407;-69
2022/07/05 11:01:20;;;;;;;0.03;0.03;;;19.90;99.90;;;;;;5072587;28;20049;-69
2022/07/05 11:04:06;;;;;;;0.10;0.10;;;19.90;99.90;;;;;;5052965;28;20059;-69
2022/07/05 11:06:43;;;;;;;0.00;0.00;;;19.90;99.90;;;;;;5064535;28;20053;-68
2022/07/05 11:09:13;;;;;;;5.85;1.75;;;19.90;99.90;;;;;;5088861;28;20036;-69
2022/07/05 11:12:03;;;;;;;0.00;0.00;;;20.00;99.90;;;;;;5082800;28;20049;-68
2022/07/05 11:14:34;;;;;;;0.00;0.00;;;20.00;99.90;;;;;;5073793;28;20051;-69
2022/07/05 11:17:12;;;;;;;0.00;0.00;;;20.00;99.90;;;;;;5090661;28;20085;-69
2022/07/05 11:20:02;;;;;;;0.10;0.10;;;20.10;99.90;;;;;;5090307;28;20055;-69
2022/07/05 11:22:28;;;;;;;0.00;0.00;;;20.10;99.90;;;;;;5072910;28;20048;-68
2022/07/05 11:24:55;;;;;;;0.00;0.00;;;20.10;99.90;;;;;;5072329;28;20071;-68
2022/07/05 11:27:21;;;;;;;0.00;0.00;;;20.20;99.90;;;;;;5090901;28;20059;-68
2022/07/05 11:29:56;;;;;;;0.10;0.10;;;20.20;99.90;;;;;;5071481;28;20039;-68
2022/07/05 11:32:27;;;;;;;0.03;0.03;;;20.00;99.90;;;;;;5053375;28;20048;-68
2022/07/05 11:34:55;;;;;;;0.08;0.08;;;20.00;99.90;;;;;;5045753;28;20080;-68
2022/07/05 11:37:24;;;;;;;0.20;0.20;;;20.00;99.90;;;;;;5032235;28;20065;-68
2022/07/05 11:40:10;;;;;;;0.10;0.10;;;19.90;99.90;;;;;;5070996;28;20143;-68
2022/07/05 11:42:49;;;;;;;0.00;0.00;;;19.90;99.90;;;;;;5056689;28;20049;-68
2022/07/05 11:45:15;;;;;;;0.00;0.00;;;19.90;99.90;;;;;;5068201;28;20193;-68
2022/07/05 11:47:41;;;;;;;1.23;0.65;;;19.90;99.90;;;;;;5065288;28;20076;-68
2022/07/05 11:50:08;;;;;;;0.05;0.05;;;19.90;99.90;;;;;;5056582;28;20047;-68
2022/07/05 11:52:36;;;;;;;0.10;0.10;;;19.90;99.90;;;;;;5071614;28;20055;-68
2022/07/05 11:55:03;;;;;;;0.20;0.20;;;19.90;99.90;;;;;;5059595;28;20048;-68
2022/07/05 11:57:29;;;;;;;0.35;0.35;;;19.90;99.90;;;;;;5069494;28;20061;-68
2022/07/05 11:59:55;;;;;;;0.00;0.00;;;20.20;99.90;;;;;;5065143;28;20496;-68
2022/07/05 12:02:20;;;;;;;0.00;0.00;;;20.20;99.90;;;;;;5081622;28;20086;-69
2022/07/05 12:04:54;;;;;;;0.10;0.10;;;20.30;99.90;;;;;;5078969;28;20040;-68
2022/07/05 12:07:32;;;;;;;0.38;0.38;;;20.30;99.90;;;;;;5071179;28;20070;-68
2022/07/05 12:12:43;;;;;;;0.10;0.10;;;20.10;99.90;;;;;;5072269;28;20447;-68
2022/07/05 12:15:19;;;;;;;0.00;0.00;;;20.20;99.90;;;;;;5049690;28;20044;-68
2022/07/05 12:17:51;;;;;;;0.00;0.00;;;20.90;99.90;;;;;;5070528;28;20565;-68
2022/07/05 12:20:25;;;;;;;0.00;0.00;;;21.70;99.90;;;;;;5075575;28;20392;-68
2022/07/05 12:22:51;;;;;;;0.10;0.10;;;21.50;99.90;;;;;;5072282;28;20056;-68
2022/07/05 12:25:22;;;;;;;0.55;0.55;;;21.80;99.90;;;;;;5089935;28;20079;-67
2022/07/05 12:27:49;;;;;;;0.17;0.10;;;21.50;99.90;;;;;;5063850;28;20045;-68
2022/07/05 12:30:16;;;;;;;0.03;0.03;;;21.50;99.90;;;;;;5078628;28;20063;-68
2022/07/05 12:33:04;;;;;;;0.00;0.00;;;21.60;99.90;;;;;;5089981;28;20150;-68
2022/07/05 12:35:31;;;;;;;0.10;0.10;;;22.40;99.90;;;;;;5070869;28;20131;-68
2022/07/05 12:38:08;;;;;;;0.10;0.10;;;22.10;99.90;;;;;;5086324;28;20075;-68
2022/07/05 12:40:36;;;;;;;0.00;0.00;;;21.80;99.90;;;;;;5071468;28;20078;-67
2022/07/05 12:43:10;;;;;;;0.03;0.03;;;22.30;99.90;;;;;;5072832;28;20053;-67
2022/07/05 12:45:37;;;;;;;0.00;0.00;;;22.70;99.90;;;;;;5049255;28;20503;-67
2022/07/05 12:48:05;;;;;;;0.00;0.00;;;22.90;99.90;;;;;;5041090;28;20052;-68
2022/07/05 12:50:51;;;;;;;0.30;0.30;;;23.00;99.90;;;;;;5067371;28;20147;-68
2022/07/05 12:58:57;;;;;;;0.03;0.03;;;23.20;99.90;;;;;;5049352;28;20049;-68
2022/07/05 13:01:37;;;;;;;0.00;0.00;;;23.30;99.90;;;;;;5069867;28;20048;-67
2022/07/05 13:04:03;;;;;;;0.30;0.28;;;23.50;99.90;;;;;;5088163;28;20059;-68
2022/07/05 13:06:55;;;;;;;0.00;0.00;;;23.30;99.90;;;;;;5089022;28;20047;-67